createdAt,value
2022-10-23T00:01:19.689Z,72.70
2022-10-23T00:03:53.953Z,72.85
2022-10-23T00:06:22.980Z,72.54
2022-10-23T00:08:50.950Z,74.13
2022-10-23T00:11:21.961Z,73.55
2022-10-23T00:13:51.009Z,73.36
2022-10-23T00:16:18.656Z,73.31
2022-10-23T00:18:46.710Z,73.03
2022-10-23T00:21:17.049Z,72.74
2022-10-23T00:23:45.327Z,72.77
2022-10-23T00:26:17.650Z,72.46
2022-10-23T00:28:48.495Z,72.67
2022-10-23T00:31:17.088Z,73.02
2022-10-23T00:33:45.713Z,72.93
2022-10-23T00:36:15.801Z,72.98
2022-10-23T00:38:45.976Z,73.30
2022-10-23T00:41:16.313Z,73.32
2022-10-23T00:44:17.827Z,74.03
2022-10-23T00:46:46.501Z,73.79
2022-10-23T00:49:14.927Z,73.31
2022-10-23T00:51:47.989Z,73.13
2022-10-23T00:54:25.788Z,73.17
2022-10-23T00:56:58.418Z,74.05
2022-10-23T00:59:27.399Z,73.32
2022-10-23T01:01:56.056Z,73.79
2022-10-23T01:04:25.301Z,73.86
2022-10-23T01:07:04.982Z,74.79
2022-10-23T01:09:57.717Z,74.48
2022-10-23T01:12:49.651Z,75.02
2022-10-23T01:15:35.536Z,74.73
2022-10-23T01:18:16.129Z,74.43
2022-10-23T01:20:59.124Z,74.59
2022-10-23T01:23:55.951Z,74.71
2022-10-23T01:26:42.118Z,74.52
2022-10-23T01:29:24.985Z,74.25
2022-10-23T01:32:15.347Z,74.12
2022-10-23T01:34:55.935Z,74.13
2022-10-23T01:37:29.798Z,74.35
2022-10-23T01:40:04.819Z,74.02
2022-10-23T01:42:40.007Z,74.37
2022-10-23T01:45:38.744Z,75.32
2022-10-23T01:48:13.959Z,74.55
2022-10-23T01:50:43.799Z,74.37
2022-10-23T01:53:11.865Z,74.33
2022-10-23T01:58:22.247Z,74.97
2022-10-23T02:02:59.128Z,75.59
2022-10-23T02:05:33.857Z,75.10
2022-10-23T02:08:04.596Z,74.62
2022-10-23T02:10:46.052Z,74.36
2022-10-23T02:13:30.012Z,74.55
2022-10-23T02:16:26.984Z,75.25
2022-10-23T02:19:19.205Z,74.89
2022-10-23T02:21:57.757Z,74.61
2022-10-23T02:24:36.727Z,74.28
2022-10-23T02:27:14.098Z,74.13
2022-10-23T02:29:51.955Z,73.66
2022-10-23T02:32:23.830Z,73.94
2022-10-23T02:34:52.022Z,74.18
2022-10-23T02:39:55.596Z,74.39
2022-10-23T02:42:39.991Z,74.28
2022-10-23T02:45:11.110Z,74.44
2022-10-23T02:48:16.211Z,74.50
2022-10-23T02:51:01.350Z,74.53
2022-10-23T02:53:41.756Z,74.21
2022-10-23T02:56:43.760Z,74.46
2022-10-23T02:59:22.615Z,73.71
2022-10-23T03:02:14.043Z,73.72
2022-10-23T03:04:44.327Z,74.13
2022-10-23T03:07:14.449Z,73.97
2022-10-23T03:09:43.809Z,73.61
2022-10-23T03:12:11.787Z,73.97
2022-10-23T03:14:39.893Z,74.02
2022-10-23T03:17:10.450Z,73.65
2022-10-23T03:19:38.439Z,73.48
2022-10-23T03:22:06.378Z,73.78
2022-10-23T03:24:34.271Z,73.73
2022-10-23T03:27:02.429Z,73.78
2022-10-23T03:29:33.214Z,74.12
2022-10-23T03:32:01.197Z,74.29
2022-10-23T03:34:29.185Z,73.90
2022-10-23T03:36:57.203Z,73.94
2022-10-23T03:39:25.208Z,75.04
2022-10-23T03:41:53.255Z,75.69
2022-10-23T03:44:22.424Z,74.98
2022-10-23T03:46:50.435Z,75.37
2022-10-23T03:49:18.433Z,75.15
2022-10-23T03:51:52.197Z,74.87
2022-10-23T03:54:23.913Z,74.39
2022-10-23T03:56:55.161Z,74.55
2022-10-23T03:59:25.529Z,74.68
2022-10-23T04:01:53.998Z,74.44
2022-10-23T04:04:22.165Z,74.55
2022-10-23T04:06:50.158Z,74.63
2022-10-23T04:09:20.230Z,74.01
2022-10-23T04:11:48.312Z,74.32
2022-10-23T04:14:16.213Z,73.90
2022-10-23T04:16:44.133Z,73.31
2022-10-23T04:19:12.421Z,73.41
2022-10-23T04:21:42.195Z,73.46
2022-10-23T04:24:10.395Z,73.77
2022-10-23T04:26:38.527Z,73.44
2022-10-23T04:29:07.286Z,73.75
2022-10-23T04:31:38.113Z,74.31
2022-10-23T04:36:39.024Z,74.22
2022-10-23T04:39:11.627Z,74.53
2022-10-23T04:41:39.673Z,75.39
2022-10-23T04:44:07.950Z,74.36
2022-10-23T04:46:39.544Z,74.36
2022-10-23T04:49:07.682Z,74.46
2022-10-23T04:52:10.968Z,74.37
2022-10-23T04:54:41.761Z,74.21
2022-10-23T04:57:24.878Z,74.26
2022-10-23T05:00:07.170Z,73.46
2022-10-23T05:02:55.624Z,73.56
2022-10-23T05:05:24.118Z,73.58
2022-10-23T05:07:54.756Z,73.39
2022-10-23T05:10:28.518Z,73.93
2022-10-23T05:13:03.353Z,73.68
2022-10-23T05:15:31.472Z,73.69
2022-10-23T05:18:10.844Z,73.28
2022-10-23T05:20:40.418Z,73.08
2022-10-23T05:23:13.891Z,74.53
2022-10-23T05:25:49.762Z,74.21
2022-10-23T05:28:19.072Z,73.60
2022-10-23T05:30:47.928Z,74.88
2022-10-23T05:33:18.151Z,75.27
2022-10-23T05:35:46.230Z,75.61
2022-10-23T05:38:16.902Z,74.81
2022-10-23T05:40:45.491Z,75.08
2022-10-23T05:43:19.773Z,75.58
2022-10-23T05:45:54.461Z,76.05
2022-10-23T05:48:45.432Z,75.27
2022-10-23T05:51:28.626Z,75.05
2022-10-23T05:54:10.042Z,75.73
2022-10-23T05:56:57.606Z,75.65
2022-10-23T05:59:34.626Z,75.60
2022-10-23T06:02:21.239Z,74.99
2022-10-23T06:04:54.715Z,75.67
2022-10-23T06:07:32.408Z,75.86
2022-10-23T06:10:06.883Z,74.86
2022-10-23T06:12:39.624Z,75.17
2022-10-23T06:15:08.510Z,75.68
2022-10-23T06:17:55.036Z,75.43
2022-10-23T06:20:26.557Z,76.91
2022-10-23T06:23:07.832Z,79.73
2022-10-23T06:25:57.838Z,81.07
2022-10-23T06:28:46.376Z,79.89
2022-10-23T06:31:16.731Z,79.61
2022-10-23T06:33:45.045Z,77.07
2022-10-23T06:36:13.554Z,75.59
2022-10-23T06:38:43.765Z,74.24
2022-10-23T06:41:15.591Z,74.03
2022-10-23T06:43:47.872Z,73.03
2022-10-23T06:46:42.544Z,72.52
2022-10-23T06:49:28.936Z,72.14
2022-10-23T06:51:59.520Z,71.61
2022-10-23T06:54:27.782Z,71.07
2022-10-23T06:57:20.954Z,70.15
2022-10-23T06:59:50.726Z,69.96
2022-10-23T07:02:19.259Z,69.09
2022-10-23T07:04:47.683Z,68.48
2022-10-23T07:07:19.288Z,67.93
2022-10-23T07:09:49.687Z,68.18
2022-10-23T07:12:36.289Z,67.06
2022-10-23T07:15:33.351Z,67.18
2022-10-23T07:18:02.238Z,66.29
2022-10-23T07:20:43.305Z,65.91
2022-10-23T07:23:12.447Z,65.76
2022-10-23T07:25:43.753Z,64.58
2022-10-23T07:28:12.271Z,64.06
2022-10-23T07:30:41.598Z,61.48
2022-10-23T07:33:12.816Z,57.46
2022-10-23T07:36:12.899Z,54.34
2022-10-23T07:38:42.549Z,53.95
2022-10-23T07:41:12.518Z,54.63
2022-10-23T07:43:41.174Z,54.03
2022-10-23T07:46:10.228Z,53.78
2022-10-23T07:48:41.526Z,53.90
2022-10-23T07:51:15.422Z,54.29
2022-10-23T07:53:47.113Z,54.38
2022-10-23T07:56:36.825Z,54.32
2022-10-23T07:59:20.767Z,54.80
2022-10-23T08:01:56.975Z,53.98
2022-10-23T08:04:31.785Z,53.24
2022-10-23T08:07:05.372Z,53.07
2022-10-23T08:09:39.720Z,53.03
2022-10-23T08:12:10.504Z,52.37
2022-10-23T08:14:39.367Z,51.82
2022-10-23T08:17:10.269Z,52.37
2022-10-23T08:19:58.863Z,52.29
2022-10-23T08:22:32.136Z,50.83
2022-10-23T08:25:00.668Z,50.09
2022-10-23T08:27:29.020Z,48.83
2022-10-23T08:29:57.111Z,48.21
2022-10-23T08:32:25.452Z,48.03
2022-10-23T08:35:01.529Z,46.21
2022-10-23T08:37:32.498Z,45.44
2022-10-23T08:40:00.613Z,44.20
2022-10-23T08:43:19.269Z,42.56
2022-10-23T08:46:10.725Z,41.48
2022-10-23T08:49:25.795Z,39.79
2022-10-23T08:52:14.132Z,40.57
2022-10-23T08:54:42.871Z,42.15
2022-10-23T08:57:16.315Z,43.01
2022-10-23T08:59:50.630Z,43.53
2022-10-23T09:02:43.513Z,42.05
2022-10-23T09:05:40.887Z,40.55
2022-10-23T09:08:47.482Z,40.25
2022-10-23T09:11:31.790Z,41.66
2022-10-23T09:14:27.017Z,39.81
2022-10-23T09:17:23.509Z,39.69
2022-10-23T09:20:00.969Z,38.59
2022-10-23T09:22:30.072Z,36.58
2022-10-23T09:24:58.914Z,35.99
2022-10-23T09:27:27.355Z,35.39
2022-10-23T09:29:56.710Z,34.79
2022-10-23T09:32:38.860Z,34.33
2022-10-23T09:35:07.559Z,33.29
2022-10-23T09:37:37.790Z,33.47
2022-10-23T09:40:14.971Z,33.07
2022-10-23T09:42:53.624Z,33.87
2022-10-23T09:45:34.529Z,33.75
2022-10-23T09:48:18.559Z,34.14
2022-10-23T09:50:52.696Z,33.50
2022-10-23T09:53:27.278Z,32.95
2022-10-23T09:55:57.277Z,31.43
2022-10-23T09:58:32.195Z,30.77
2022-10-23T10:01:01.170Z,29.84
2022-10-23T10:03:52.294Z,30.29
2022-10-23T10:06:33.146Z,30.91
2022-10-23T10:09:08.716Z,30.24
2022-10-23T10:11:55.995Z,29.28
2022-10-23T10:14:33.372Z,27.45
2022-10-23T10:17:42.507Z,28.46
2022-10-23T10:20:41.479Z,29.98
2022-10-23T10:23:27.499Z,29.22
2022-10-23T10:26:07.904Z,27.25
2022-10-23T10:29:00.782Z,24.37
2022-10-23T10:31:55.265Z,24.24
2022-10-23T10:34:33.657Z,24.07
2022-10-23T10:37:11.771Z,25.21
2022-10-23T10:40:13.758Z,25.38
2022-10-23T10:42:49.360Z,24.89
2022-10-23T10:45:19.671Z,24.88
2022-10-23T10:47:55.414Z,24.14
2022-10-23T10:50:31.781Z,25.09
2022-10-23T10:53:23.268Z,28.65
2022-10-23T10:55:56.243Z,29.75
2022-10-23T10:58:49.624Z,30.35
2022-10-23T11:01:27.022Z,30.66
2022-10-23T11:04:14.034Z,30.56
2022-10-23T11:06:46.840Z,31.39
2022-10-23T11:09:21.425Z,31.39
2022-10-23T11:11:50.163Z,31.27
2022-10-23T11:14:21.712Z,32.31
2022-10-23T11:16:53.522Z,32.68
2022-10-23T11:19:38.364Z,32.45
2022-10-23T11:22:19.720Z,32.27
2022-10-23T11:25:04.913Z,31.88
2022-10-23T11:28:10.517Z,31.72
2022-10-23T11:31:13.949Z,31.21
2022-10-23T11:34:07.163Z,31.14
2022-10-23T11:36:56.813Z,32.28
2022-10-23T11:39:31.064Z,32.62
2022-10-23T11:42:06.999Z,33.11
2022-10-23T11:44:41.113Z,33.73
2022-10-23T11:47:38.018Z,34.03
2022-10-23T11:50:07.822Z,34.58
2022-10-23T11:52:50.498Z,34.92
2022-10-23T11:55:24.591Z,34.95
2022-10-23T11:58:16.646Z,35.11
2022-10-23T12:00:56.959Z,35.13
2022-10-23T12:03:43.230Z,35.44
2022-10-23T12:06:31.876Z,35.41
2022-10-23T12:09:05.494Z,35.76
2022-10-23T12:11:48.859Z,35.83
2022-10-23T12:14:36.670Z,36.04
2022-10-23T12:17:25.779Z,35.80
2022-10-23T12:20:20.047Z,36.32
2022-10-23T12:23:12.314Z,36.83
2022-10-23T12:25:52.245Z,37.21
2022-10-23T12:28:29.817Z,36.92
2022-10-23T12:31:18.151Z,36.75
2022-10-23T12:34:10.966Z,37.12
2022-10-23T12:36:53.061Z,37.67
2022-10-23T12:39:33.035Z,38.26
2022-10-23T12:42:01.769Z,38.14
2022-10-23T12:44:30.888Z,38.41
2022-10-23T12:47:04.739Z,38.64
2022-10-23T12:49:35.009Z,38.42
2022-10-23T12:52:16.929Z,38.84
2022-10-23T12:54:45.950Z,38.75
2022-10-23T12:57:22.538Z,39.46
2022-10-23T12:59:55.881Z,39.05
2022-10-23T13:02:30.000Z,39.67
2022-10-23T13:05:02.660Z,39.30
2022-10-23T13:07:39.283Z,38.96
2022-10-23T13:10:15.749Z,39.52
2022-10-23T13:13:04.110Z,38.55
2022-10-23T13:15:41.145Z,38.38
2022-10-23T13:18:17.385Z,38.75
2022-10-23T13:20:52.501Z,38.36
2022-10-23T13:23:34.834Z,38.04
2022-10-23T13:26:36.283Z,38.44
2022-10-23T13:29:31.793Z,38.25
2022-10-23T13:32:13.538Z,38.40
2022-10-23T13:35:03.622Z,37.72
2022-10-23T13:37:39.497Z,37.67
2022-10-23T13:40:25.474Z,37.35
2022-10-23T13:42:56.325Z,37.43
2022-10-23T13:45:27.230Z,36.82
2022-10-23T13:47:55.858Z,36.98
2022-10-23T13:50:24.373Z,37.00
2022-10-23T13:52:53.421Z,38.08
2022-10-23T13:55:26.923Z,37.85
2022-10-23T13:57:56.806Z,38.80
2022-10-23T14:00:25.323Z,39.29
2022-10-23T14:05:23.665Z,39.81
2022-10-23T14:07:52.338Z,40.48
2022-10-23T14:10:22.616Z,40.74
2022-10-23T14:12:55.330Z,40.80
2022-10-23T14:15:23.945Z,41.14
2022-10-23T14:17:58.017Z,41.28
2022-10-23T14:20:28.934Z,41.72
2022-10-23T14:22:57.547Z,42.21
2022-10-23T14:25:26.235Z,42.38
2022-10-23T14:30:28.986Z,42.27
2022-10-23T14:32:57.613Z,43.01
2022-10-23T14:35:26.271Z,42.81
2022-10-23T14:37:54.776Z,42.53
2022-10-23T14:40:23.287Z,42.09
2022-10-23T14:42:51.809Z,42.07
2022-10-23T14:45:21.326Z,42.72
2022-10-23T14:47:49.629Z,42.65
2022-10-23T14:50:18.009Z,43.23
2022-10-23T14:52:46.377Z,43.08
2022-10-23T14:55:14.665Z,43.29
2022-10-23T14:57:43.366Z,43.58
2022-10-23T15:00:12.827Z,43.44
2022-10-23T15:02:42.191Z,43.91
2022-10-23T15:05:22.769Z,44.10
2022-10-23T15:07:52.289Z,44.40
2022-10-23T15:10:20.903Z,45.13
2022-10-23T15:12:49.750Z,44.99
2022-10-23T15:15:18.359Z,44.84
2022-10-23T15:17:46.905Z,44.88
2022-10-23T15:20:15.760Z,45.00
2022-10-23T15:22:44.570Z,44.72
2022-10-23T15:25:17.778Z,44.93
2022-10-23T15:27:46.832Z,46.15
2022-10-23T15:30:15.615Z,46.52
2022-10-23T15:32:45.003Z,47.25
2022-10-23T15:35:13.607Z,47.22
2022-10-23T15:37:42.387Z,47.59
2022-10-23T15:40:11.625Z,48.22
2022-10-23T15:42:39.973Z,48.37
2022-10-23T15:45:08.708Z,48.64
2022-10-23T15:47:37.231Z,48.80
2022-10-23T15:50:08.682Z,49.25
2022-10-23T15:52:37.083Z,49.49
2022-10-23T15:55:06.020Z,49.61
2022-10-23T15:57:34.875Z,50.32
2022-10-23T16:00:06.416Z,50.38
2022-10-23T16:02:38.123Z,50.71
2022-10-23T16:05:06.997Z,50.65
2022-10-23T16:07:35.516Z,51.41
2022-10-23T16:10:04.476Z,51.49
2022-10-23T16:12:33.204Z,51.65
2022-10-23T16:15:01.441Z,51.78
2022-10-23T16:17:30.165Z,52.18
2022-10-23T16:19:58.735Z,52.31
2022-10-23T16:22:28.047Z,52.74
2022-10-23T16:24:56.688Z,52.72
2022-10-23T16:27:25.369Z,52.92
2022-10-23T16:29:54.104Z,53.14
2022-10-23T16:32:22.707Z,53.08
2022-10-23T16:34:51.173Z,53.48
2022-10-23T16:37:21.679Z,53.56
2022-10-23T16:40:02.358Z,54.64
2022-10-23T16:42:49.388Z,55.13
2022-10-23T16:45:30.140Z,55.32
2022-10-23T16:47:59.986Z,55.37
2022-10-23T16:50:28.769Z,55.17
2022-10-23T16:52:57.577Z,55.44
2022-10-23T16:55:25.833Z,55.73
2022-10-23T16:57:54.336Z,55.91
2022-10-23T17:00:23.594Z,56.64
2022-10-23T17:02:54.482Z,56.71
2022-10-23T17:05:23.144Z,57.07
2022-10-23T17:13:02.091Z,57.85
2022-10-23T17:15:30.516Z,58.57
2022-10-23T17:17:59.459Z,58.86
2022-10-23T17:20:28.024Z,59.29
2022-10-23T17:22:56.818Z,59.09
2022-10-23T17:25:26.252Z,59.18
2022-10-23T17:27:54.544Z,59.10
2022-10-23T17:30:22.887Z,59.35
2022-10-23T17:32:51.224Z,59.36
2022-10-23T17:35:20.114Z,59.73
2022-10-23T17:37:50.863Z,60.06
2022-10-23T17:40:22.770Z,60.07
2022-10-23T17:42:53.546Z,60.52
2022-10-23T17:45:22.040Z,60.93
2022-10-23T17:47:50.944Z,60.98
2022-10-23T17:50:19.875Z,60.68
2022-10-23T17:52:49.163Z,60.96
2022-10-23T17:55:17.792Z,60.89
2022-10-23T17:57:46.632Z,60.84
2022-10-23T18:00:16.564Z,61.07
2022-10-23T18:02:45.257Z,61.21
2022-10-23T18:05:13.757Z,61.15
2022-10-23T18:07:42.620Z,61.37
2022-10-23T18:10:11.842Z,61.63
2022-10-23T18:12:40.755Z,61.51
2022-10-23T18:15:09.839Z,61.35
2022-10-23T18:17:38.280Z,62.03
2022-10-23T18:20:07.868Z,62.07
2022-10-23T18:22:36.981Z,62.70
2022-10-23T18:25:06.046Z,61.98
2022-10-23T18:27:34.731Z,62.23
2022-10-23T18:30:03.505Z,62.04
2022-10-23T18:32:32.151Z,62.08
2022-10-23T18:35:00.649Z,63.18
2022-10-23T18:37:30.291Z,63.27
2022-10-23T18:40:01.664Z,62.45
2022-10-23T18:42:30.169Z,62.90
2022-10-23T18:44:58.668Z,62.90
2022-10-23T18:47:27.353Z,63.16
2022-10-23T18:49:55.768Z,63.51
2022-10-23T18:52:24.140Z,65.02
2022-10-23T18:54:52.796Z,64.09
2022-10-23T18:57:21.348Z,65.47
2022-10-23T18:59:51.370Z,65.35
2022-10-23T19:02:20.131Z,65.40
2022-10-23T19:04:48.582Z,65.81
2022-10-23T19:07:17.774Z,65.58
2022-10-23T19:09:46.279Z,65.11
2022-10-23T19:14:50.169Z,64.82
2022-10-23T19:17:23.027Z,64.47
2022-10-23T19:20:00.849Z,65.33
2022-10-23T19:22:37.207Z,64.94
2022-10-23T19:25:11.719Z,66.02
2022-10-23T19:27:40.826Z,66.02
2022-10-23T19:30:14.092Z,66.21
2022-10-23T19:32:45.332Z,65.78
2022-10-23T19:35:16.818Z,66.18
2022-10-23T19:37:45.862Z,65.93
2022-10-23T19:40:16.547Z,65.43
2022-10-23T19:42:45.261Z,65.34
2022-10-23T19:45:15.077Z,65.40
2022-10-23T19:47:43.695Z,65.03
2022-10-23T19:50:12.434Z,65.56
2022-10-23T19:52:40.885Z,66.13
2022-10-23T19:55:09.420Z,66.37
2022-10-23T19:57:37.745Z,66.26
2022-10-23T20:00:07.776Z,66.35
2022-10-23T20:02:38.804Z,66.37
2022-10-23T20:05:10.231Z,66.36
2022-10-23T20:07:38.317Z,66.34
2022-10-23T20:10:08.478Z,66.27
2022-10-23T20:12:36.466Z,66.41
2022-10-23T20:15:05.000Z,66.16
2022-10-23T20:17:32.902Z,66.13
2022-10-23T20:20:00.967Z,66.16
2022-10-23T20:22:29.027Z,66.47
2022-10-23T20:24:57.232Z,67.00
2022-10-23T20:27:25.267Z,66.71
2022-10-23T20:29:53.186Z,67.46
2022-10-23T20:32:21.193Z,67.67
2022-10-23T20:34:49.212Z,67.11
2022-10-23T20:37:17.348Z,68.02
2022-10-23T20:39:45.536Z,68.29
2022-10-23T20:42:13.550Z,68.31
2022-10-23T20:44:41.723Z,68.01
2022-10-23T20:47:10.091Z,68.28
2022-10-23T20:49:38.175Z,67.89
2022-10-23T20:52:06.455Z,67.91
2022-10-23T20:54:36.147Z,67.27
2022-10-23T20:57:04.354Z,66.91
2022-10-23T20:59:34.288Z,67.05
2022-10-23T21:02:02.535Z,67.14
2022-10-23T21:04:30.621Z,67.26
2022-10-23T21:07:14.380Z,67.32
2022-10-23T21:09:43.071Z,67.65
2022-10-23T21:12:11.079Z,67.47
2022-10-23T21:14:39.188Z,67.65
2022-10-23T21:17:08.884Z,67.65
2022-10-23T21:19:37.011Z,67.94
2022-10-23T21:22:05.047Z,67.84
2022-10-23T21:24:33.096Z,67.77
2022-10-23T21:27:03.107Z,68.68
2022-10-23T21:29:31.051Z,68.90
2022-10-23T21:32:01.742Z,68.80
2022-10-23T21:34:30.102Z,67.93
2022-10-23T21:37:14.664Z,67.45
2022-10-23T21:39:44.499Z,68.16
2022-10-23T21:42:14.175Z,67.98
2022-10-23T21:44:42.323Z,67.51
2022-10-23T21:47:10.449Z,67.97
2022-10-23T21:49:38.413Z,68.12
2022-10-23T21:52:06.512Z,68.08
2022-10-23T21:54:34.423Z,67.83
2022-10-23T21:57:03.675Z,67.57
2022-10-23T21:59:35.548Z,67.47
2022-10-23T22:02:04.469Z,68.18
2022-10-23T22:04:32.694Z,68.35
2022-10-23T22:07:02.085Z,68.51
2022-10-23T22:09:30.726Z,68.61
2022-10-23T22:12:00.056Z,68.23
2022-10-23T22:14:28.801Z,68.33
2022-10-23T22:16:56.914Z,68.71
2022-10-23T22:19:25.711Z,67.92
2022-10-23T22:21:54.266Z,67.12
2022-10-23T22:24:22.486Z,67.16
2022-10-23T22:26:53.601Z,67.37
2022-10-23T22:29:25.654Z,67.40
2022-10-23T22:31:54.164Z,67.75
2022-10-23T22:34:48.241Z,67.47
2022-10-23T22:37:16.550Z,68.48
2022-10-23T22:39:44.413Z,68.13
2022-10-23T22:42:12.429Z,68.33
2022-10-23T22:44:44.506Z,68.19
2022-10-23T22:47:12.470Z,68.03
2022-10-23T22:49:40.528Z,69.03
2022-10-23T22:52:08.334Z,68.84
2022-10-23T22:54:36.380Z,67.93
2022-10-23T22:57:04.281Z,68.20
2022-10-23T22:59:32.306Z,68.72
2022-10-23T23:02:00.243Z,69.45
2022-10-23T23:04:37.742Z,69.16
2022-10-23T23:07:08.973Z,68.89
2022-10-23T23:09:41.725Z,68.64
2022-10-23T23:12:12.307Z,69.47
2022-10-23T23:14:41.081Z,70.11
2022-10-23T23:17:09.809Z,70.18
2022-10-23T23:19:37.802Z,69.77
2022-10-23T23:22:06.096Z,70.07
2022-10-23T23:24:34.490Z,70.29
2022-10-23T23:27:02.350Z,69.80
2022-10-23T23:29:30.353Z,70.21
2022-10-23T23:31:58.546Z,70.49
2022-10-23T23:34:26.731Z,70.70
2022-10-23T23:36:54.635Z,70.72
2022-10-23T23:39:22.618Z,69.91
2022-10-23T23:41:50.699Z,70.04
2022-10-23T23:44:18.557Z,69.62
2022-10-23T23:46:46.506Z,69.63
2022-10-23T23:49:14.362Z,69.73
2022-10-23T23:51:42.328Z,69.76
2022-10-23T23:54:10.388Z,69.30
2022-10-23T23:56:38.237Z,68.77
2022-10-23T23:59:06.304Z,69.13
